sensor_id;sensor_type;location;lat;lon;timestamp;P1;durP1;ratioP1;P2;durP2;ratioP2
47403;SDS011;33157;51.508;4.288;2023-05-17T00:02:45;16.63;;;4.25;;
47403;SDS011;33157;51.508;4.288;2023-05-17T00:07:49;22.52;;;4.78;;
47403;SDS011;33157;51.508;4.288;2023-05-17T00:12:51;19.73;;;4.88;;
47403;SDS011;33157;51.508;4.288;2023-05-17T00:17:55;18.02;;;4.38;;
47403;SDS011;33157;51.508;4.288;2023-05-17T00:22:58;16.88;;;4.80;;
47403;SDS011;33157;51.508;4.288;2023-05-17T00:33:01;13.40;;;4.22;;
47403;SDS011;33157;51.508;4.288;2023-05-17T00:38:06;19.48;;;5.18;;
47403;SDS011;33157;51.508;4.288;2023-05-17T00:43:09;15.85;;;5.63;;
47403;SDS011;33157;51.508;4.288;2023-05-17T00:48:13;10.77;;;4.85;;
47403;SDS011;33157;51.508;4.288;2023-05-17T00:53:14;13.27;;;4.25;;
47403;SDS011;33157;51.508;4.288;2023-05-17T00:58:17;12.77;;;4.03;;
47403;SDS011;33157;51.508;4.288;2023-05-17T01:03:18;20.40;;;5.17;;
47403;SDS011;33157;51.508;4.288;2023-05-17T01:08:22;18.02;;;4.70;;
47403;SDS011;33157;51.508;4.288;2023-05-17T01:13:24;15.88;;;4.68;;
47403;SDS011;33157;51.508;4.288;2023-05-17T01:18:45;14.30;;;4.60;;
47403;SDS011;33157;51.508;4.288;2023-05-17T01:29:04;19.23;;;5.47;;
47403;SDS011;33157;51.508;4.288;2023-05-17T01:34:09;15.40;;;5.05;;
47403;SDS011;33157;51.508;4.288;2023-05-17T01:39:09;16.75;;;5.25;;
47403;SDS011;33157;51.508;4.288;2023-05-17T01:49:33;14.48;;;5.28;;
47403;SDS011;33157;51.508;4.288;2023-05-17T01:54:47;18.13;;;5.93;;
47403;SDS011;33157;51.508;4.288;2023-05-17T01:59:51;19.65;;;5.60;;
47403;SDS011;33157;51.508;4.288;2023-05-17T02:04:52;15.02;;;5.93;;
47403;SDS011;33157;51.508;4.288;2023-05-17T02:09:54;13.45;;;4.78;;
47403;SDS011;33157;51.508;4.288;2023-05-17T02:15:05;17.67;;;5.40;;
47403;SDS011;33157;51.508;4.288;2023-05-17T02:20:09;17.15;;;5.00;;
47403;SDS011;33157;51.508;4.288;2023-05-17T02:25:12;13.73;;;5.70;;
47403;SDS011;33157;51.508;4.288;2023-05-17T02:30:31;16.65;;;5.50;;
47403;SDS011;33157;51.508;4.288;2023-05-17T02:35:33;17.63;;;6.33;;
47403;SDS011;33157;51.508;4.288;2023-05-17T02:40:35;15.73;;;6.25;;
47403;SDS011;33157;51.508;4.288;2023-05-17T02:45:39;17.15;;;5.32;;
47403;SDS011;33157;51.508;4.288;2023-05-17T02:50:51;17.27;;;6.80;;
47403;SDS011;33157;51.508;4.288;2023-05-17T02:55:52;14.85;;;6.55;;
47403;SDS011;33157;51.508;4.288;2023-05-17T03:01:00;14.32;;;6.25;;
47403;SDS011;33157;51.508;4.288;2023-05-17T03:06:07;18.17;;;6.72;;
47403;SDS011;33157;51.508;4.288;2023-05-17T03:11:15;18.98;;;6.63;;
47403;SDS011;33157;51.508;4.288;2023-05-17T03:16:16;18.40;;;6.22;;
47403;SDS011;33157;51.508;4.288;2023-05-17T03:21:20;21.43;;;6.33;;
47403;SDS011;33157;51.508;4.288;2023-05-17T03:26:27;17.83;;;6.78;;
47403;SDS011;33157;51.508;4.288;2023-05-17T03:31:31;20.55;;;6.35;;
47403;SDS011;33157;51.508;4.288;2023-05-17T03:36:36;18.98;;;6.07;;
47403;SDS011;33157;51.508;4.288;2023-05-17T03:41:55;18.90;;;6.28;;
47403;SDS011;33157;51.508;4.288;2023-05-17T03:46:58;21.25;;;6.32;;
47403;SDS011;33157;51.508;4.288;2023-05-17T03:52:01;21.45;;;6.40;;
47403;SDS011;33157;51.508;4.288;2023-05-17T03:57:09;22.65;;;6.57;;
47403;SDS011;33157;51.508;4.288;2023-05-17T04:02:13;20.30;;;5.70;;
47403;SDS011;33157;51.508;4.288;2023-05-17T04:07:18;18.88;;;5.30;;
47403;SDS011;33157;51.508;4.288;2023-05-17T04:12:29;19.95;;;5.50;;
47403;SDS011;33157;51.508;4.288;2023-05-17T04:17:35;14.23;;;5.45;;
47403;SDS011;33157;51.508;4.288;2023-05-17T04:22:38;15.38;;;5.68;;
47403;SDS011;33157;51.508;4.288;2023-05-17T04:27:40;17.13;;;5.63;;
47403;SDS011;33157;51.508;4.288;2023-05-17T04:32:58;16.27;;;4.97;;
47403;SDS011;33157;51.508;4.288;2023-05-17T04:38:03;18.77;;;5.53;;
47403;SDS011;33157;51.508;4.288;2023-05-17T04:43:10;21.67;;;5.50;;
47403;SDS011;33157;51.508;4.288;2023-05-17T04:48:11;18.80;;;5.88;;
47403;SDS011;33157;51.508;4.288;2023-05-17T04:53:15;18.90;;;6.50;;
47403;SDS011;33157;51.508;4.288;2023-05-17T04:58:16;23.13;;;5.90;;
47403;SDS011;33157;51.508;4.288;2023-05-17T05:03:31;15.63;;;5.22;;
47403;SDS011;33157;51.508;4.288;2023-05-17T05:08:39;18.05;;;5.30;;
47403;SDS011;33157;51.508;4.288;2023-05-17T05:13:49;17.95;;;5.00;;
47403;SDS011;33157;51.508;4.288;2023-05-17T05:18:51;15.68;;;4.00;;
47403;SDS011;33157;51.508;4.288;2023-05-17T05:23:55;20.35;;;5.60;;
47403;SDS011;33157;51.508;4.288;2023-05-17T05:29:02;15.48;;;4.20;;
47403;SDS011;33157;51.508;4.288;2023-05-17T05:34:08;18.65;;;5.45;;
47403;SDS011;33157;51.508;4.288;2023-05-17T05:39:10;18.83;;;4.63;;
47403;SDS011;33157;51.508;4.288;2023-05-17T05:44:17;15.48;;;4.25;;
47403;SDS011;33157;51.508;4.288;2023-05-17T05:49:19;16.27;;;4.68;;
47403;SDS011;33157;51.508;4.288;2023-05-17T05:54:26;15.75;;;4.40;;
47403;SDS011;33157;51.508;4.288;2023-05-17T05:59:28;16.40;;;4.68;;
47403;SDS011;33157;51.508;4.288;2023-05-17T06:04:29;20.50;;;5.45;;
47403;SDS011;33157;51.508;4.288;2023-05-17T06:09:42;16.20;;;4.15;;
47403;SDS011;33157;51.508;4.288;2023-05-17T06:14:46;18.85;;;4.40;;
47403;SDS011;33157;51.508;4.288;2023-05-17T06:19:50;17.77;;;4.30;;
47403;SDS011;33157;51.508;4.288;2023-05-17T06:24:53;12.45;;;3.55;;
47403;SDS011;33157;51.508;4.288;2023-05-17T06:30:06;13.35;;;4.07;;
47403;SDS011;33157;51.508;4.288;2023-05-17T06:35:15;11.68;;;4.47;;
47403;SDS011;33157;51.508;4.288;2023-05-17T06:40:15;13.07;;;3.80;;
47403;SDS011;33157;51.508;4.288;2023-05-17T06:45:16;11.98;;;4.05;;
47403;SDS011;33157;51.508;4.288;2023-05-17T06:50:19;17.77;;;3.70;;
47403;SDS011;33157;51.508;4.288;2023-05-17T06:55:21;14.25;;;3.72;;
47403;SDS011;33157;51.508;4.288;2023-05-17T07:00:22;13.63;;;3.50;;
47403;SDS011;33157;51.508;4.288;2023-05-17T07:05:30;11.95;;;3.33;;
47403;SDS011;33157;51.508;4.288;2023-05-17T07:10:36;17.15;;;3.10;;
47403;SDS011;33157;51.508;4.288;2023-05-17T07:15:39;8.70;;;2.90;;
47403;SDS011;33157;51.508;4.288;2023-05-17T07:20:44;15.55;;;3.08;;
47403;SDS011;33157;51.508;4.288;2023-05-17T07:25:51;12.73;;;2.25;;
47403;SDS011;33157;51.508;4.288;2023-05-17T07:30:53;8.95;;;2.22;;
47403;SDS011;33157;51.508;4.288;2023-05-17T07:35:54;13.32;;;2.50;;
47403;SDS011;33157;51.508;4.288;2023-05-17T07:40:55;14.23;;;2.60;;
47403;SDS011;33157;51.508;4.288;2023-05-17T07:46:00;10.07;;;2.60;;
47403;SDS011;33157;51.508;4.288;2023-05-17T07:51:06;11.48;;;2.60;;
47403;SDS011;33157;51.508;4.288;2023-05-17T07:56:19;12.13;;;2.90;;
47403;SDS011;33157;51.508;4.288;2023-05-17T08:01:20;12.10;;;2.60;;
47403;SDS011;33157;51.508;4.288;2023-05-17T08:06:24;16.23;;;3.45;;
47403;SDS011;33157;51.508;4.288;2023-05-17T08:11:28;14.57;;;3.50;;
47403;SDS011;33157;51.508;4.288;2023-05-17T08:16:33;12.85;;;2.10;;
47403;SDS011;33157;51.508;4.288;2023-05-17T08:21:35;13.25;;;2.75;;
47403;SDS011;33157;51.508;4.288;2023-05-17T08:26:38;11.50;;;3.35;;
47403;SDS011;33157;51.508;4.288;2023-05-17T08:31:42;12.57;;;2.97;;
47403;SDS011;33157;51.508;4.288;2023-05-17T08:36:47;14.23;;;2.67;;
47403;SDS011;33157;51.508;4.288;2023-05-17T08:41:55;12.43;;;2.65;;
47403;SDS011;33157;51.508;4.288;2023-05-17T08:47:02;13.27;;;2.83;;
47403;SDS011;33157;51.508;4.288;2023-05-17T08:52:08;16.40;;;2.75;;
47403;SDS011;33157;51.508;4.288;2023-05-17T08:57:09;11.10;;;3.00;;
47403;SDS011;33157;51.508;4.288;2023-05-17T09:02:15;14.25;;;2.75;;
47403;SDS011;33157;51.508;4.288;2023-05-17T09:12:20;10.85;;;3.47;;
47403;SDS011;33157;51.508;4.288;2023-05-17T09:17:27;18.70;;;2.63;;
47403;SDS011;33157;51.508;4.288;2023-05-17T09:22:29;11.07;;;2.92;;
47403;SDS011;33157;51.508;4.288;2023-05-17T09:27:34;10.13;;;2.75;;
47403;SDS011;33157;51.508;4.288;2023-05-17T09:32:42;10.95;;;2.70;;
47403;SDS011;33157;51.508;4.288;2023-05-17T09:37:48;12.85;;;2.60;;
47403;SDS011;33157;51.508;4.288;2023-05-17T09:42:50;13.50;;;2.60;;
47403;SDS011;33157;51.508;4.288;2023-05-17T09:47:56;10.43;;;2.60;;
47403;SDS011;33157;51.508;4.288;2023-05-17T09:53:27;8.40;;;2.20;;
47403;SDS011;33157;51.508;4.288;2023-05-17T09:58:37;11.00;;;1.73;;
47403;SDS011;33157;51.508;4.288;2023-05-17T10:03:39;10.93;;;2.67;;
47403;SDS011;33157;51.508;4.288;2023-05-17T10:08:41;11.75;;;2.20;;
47403;SDS011;33157;51.508;4.288;2023-05-17T10:14:35;7.82;;;2.47;;
47403;SDS011;33157;51.508;4.288;2023-05-17T10:19:38;6.90;;;2.60;;
47403;SDS011;33157;51.508;4.288;2023-05-17T10:24:45;7.10;;;2.35;;
47403;SDS011;33157;51.508;4.288;2023-05-17T10:29:51;9.18;;;2.00;;
47403;SDS011;33157;51.508;4.288;2023-05-17T10:34:55;9.65;;;2.15;;
47403;SDS011;33157;51.508;4.288;2023-05-17T10:39:56;8.00;;;1.77;;
47403;SDS011;33157;51.508;4.288;2023-05-17T10:44:57;9.82;;;2.17;;
47403;SDS011;33157;51.508;4.288;2023-05-17T10:50:01;5.55;;;1.80;;
47403;SDS011;33157;51.508;4.288;2023-05-17T10:55:11;6.43;;;1.50;;
47403;SDS011;33157;51.508;4.288;2023-05-17T11:00:18;7.43;;;2.00;;
47403;SDS011;33157;51.508;4.288;2023-05-17T11:05:28;8.68;;;2.17;;
47403;SDS011;33157;51.508;4.288;2023-05-17T11:10:30;10.68;;;2.15;;
47403;SDS011;33157;51.508;4.288;2023-05-17T11:15:34;6.15;;;1.30;;
47403;SDS011;33157;51.508;4.288;2023-05-17T11:20:38;3.80;;;1.30;;
47403;SDS011;33157;51.508;4.288;2023-05-17T11:25:40;8.15;;;1.85;;
47403;SDS011;33157;51.508;4.288;2023-05-17T11:30:42;6.85;;;1.52;;
47403;SDS011;33157;51.508;4.288;2023-05-17T11:35:53;8.60;;;1.67;;
47403;SDS011;33157;51.508;4.288;2023-05-17T11:40:55;8.43;;;1.77;;
47403;SDS011;33157;51.508;4.288;2023-05-17T11:46:01;4.85;;;1.35;;
47403;SDS011;33157;51.508;4.288;2023-05-17T11:51:05;5.70;;;1.60;;
47403;SDS011;33157;51.508;4.288;2023-05-17T11:56:16;12.73;;;1.60;;
47403;SDS011;33157;51.508;4.288;2023-05-17T12:01:26;7.20;;;1.67;;
47403;SDS011;33157;51.508;4.288;2023-05-17T12:06:27;10.57;;;1.70;;
47403;SDS011;33157;51.508;4.288;2023-05-17T12:11:28;9.35;;;1.85;;
47403;SDS011;33157;51.508;4.288;2023-05-17T12:16:29;9.70;;;1.77;;
47403;SDS011;33157;51.508;4.288;2023-05-17T12:21:51;8.38;;;1.80;;
47403;SDS011;33157;51.508;4.288;2023-05-17T12:26:53;7.70;;;1.65;;
47403;SDS011;33157;51.508;4.288;2023-05-17T12:31:57;9.20;;;2.30;;
47403;SDS011;33157;51.508;4.288;2023-05-17T12:37:01;9.13;;;1.48;;
47403;SDS011;33157;51.508;4.288;2023-05-17T12:47:11;7.82;;;1.92;;
47403;SDS011;33157;51.508;4.288;2023-05-17T12:52:16;6.13;;;1.60;;
47403;SDS011;33157;51.508;4.288;2023-05-17T12:57:17;9.50;;;2.25;;
47403;SDS011;33157;51.508;4.288;2023-05-17T13:02:22;10.05;;;1.65;;
47403;SDS011;33157;51.508;4.288;2023-05-17T13:07:26;5.80;;;1.42;;
47403;SDS011;33157;51.508;4.288;2023-05-17T13:12:28;8.10;;;2.13;;
47403;SDS011;33157;51.508;4.288;2023-05-17T13:17:38;7.15;;;1.83;;
47403;SDS011;33157;51.508;4.288;2023-05-17T13:22:50;5.57;;;1.60;;
47403;SDS011;33157;51.508;4.288;2023-05-17T13:27:55;10.07;;;2.78;;
47403;SDS011;33157;51.508;4.288;2023-05-17T13:32:56;9.13;;;2.00;;
47403;SDS011;33157;51.508;4.288;2023-05-17T13:37:57;5.75;;;1.83;;
47403;SDS011;33157;51.508;4.288;2023-05-17T13:43:04;8.40;;;1.90;;
47403;SDS011;33157;51.508;4.288;2023-05-17T13:48:06;8.02;;;1.40;;
47403;SDS011;33157;51.508;4.288;2023-05-17T13:53:07;9.35;;;2.15;;
47403;SDS011;33157;51.508;4.288;2023-05-17T13:58:08;7.13;;;1.67;;
47403;SDS011;33157;51.508;4.288;2023-05-17T14:03:10;8.07;;;1.73;;
47403;SDS011;33157;51.508;4.288;2023-05-17T14:08:15;7.47;;;1.70;;
47403;SDS011;33157;51.508;4.288;2023-05-17T14:13:22;9.52;;;2.10;;
47403;SDS011;33157;51.508;4.288;2023-05-17T14:18:26;8.77;;;1.98;;
47403;SDS011;33157;51.508;4.288;2023-05-17T14:23:27;9.40;;;2.08;;
47403;SDS011;33157;51.508;4.288;2023-05-17T14:28:28;5.97;;;1.70;;
47403;SDS011;33157;51.508;4.288;2023-05-17T14:33:30;5.20;;;1.60;;
47403;SDS011;33157;51.508;4.288;2023-05-17T14:43:38;7.50;;;1.67;;
47403;SDS011;33157;51.508;4.288;2023-05-17T14:48:40;8.30;;;1.70;;
47403;SDS011;33157;51.508;4.288;2023-05-17T14:53:41;11.75;;;2.05;;
47403;SDS011;33157;51.508;4.288;2023-05-17T14:58:43;7.73;;;1.83;;
47403;SDS011;33157;51.508;4.288;2023-05-17T15:03:45;6.28;;;2.08;;
47403;SDS011;33157;51.508;4.288;2023-05-17T15:08:47;5.65;;;2.03;;
47403;SDS011;33157;51.508;4.288;2023-05-17T15:13:49;6.03;;;1.88;;
47403;SDS011;33157;51.508;4.288;2023-05-17T15:18:53;6.53;;;1.95;;
47403;SDS011;33157;51.508;4.288;2023-05-17T15:24:00;6.55;;;2.10;;
47403;SDS011;33157;51.508;4.288;2023-05-17T15:29:05;8.20;;;2.17;;
47403;SDS011;33157;51.508;4.288;2023-05-17T15:34:06;4.35;;;1.45;;
47403;SDS011;33157;51.508;4.288;2023-05-17T15:44:13;6.25;;;1.52;;
47403;SDS011;33157;51.508;4.288;2023-05-17T15:49:15;7.57;;;1.73;;
47403;SDS011;33157;51.508;4.288;2023-05-17T15:54:16;7.10;;;1.77;;
47403;SDS011;33157;51.508;4.288;2023-05-17T15:59:24;8.18;;;1.60;;
47403;SDS011;33157;51.508;4.288;2023-05-17T16:04:32;5.70;;;1.73;;
47403;SDS011;33157;51.508;4.288;2023-05-17T16:09:40;5.47;;;1.75;;
47403;SDS011;33157;51.508;4.288;2023-05-17T16:14:43;7.60;;;1.70;;
47403;SDS011;33157;51.508;4.288;2023-05-17T16:19:45;6.65;;;1.70;;
47403;SDS011;33157;51.508;4.288;2023-05-17T16:24:46;8.27;;;1.95;;
47403;SDS011;33157;51.508;4.288;2023-05-17T16:30:02;11.77;;;1.85;;
47403;SDS011;33157;51.508;4.288;2023-05-17T16:40:10;10.38;;;1.90;;
47403;SDS011;33157;51.508;4.288;2023-05-17T16:45:11;10.73;;;1.98;;
47403;SDS011;33157;51.508;4.288;2023-05-17T16:50:15;9.25;;;1.95;;
47403;SDS011;33157;51.508;4.288;2023-05-17T17:00:29;9.48;;;2.33;;
47403;SDS011;33157;51.508;4.288;2023-05-17T17:05:45;8.90;;;1.98;;
47403;SDS011;33157;51.508;4.288;2023-05-17T17:10:49;9.93;;;2.13;;
47403;SDS011;33157;51.508;4.288;2023-05-17T17:15:50;13.40;;;1.92;;
47403;SDS011;33157;51.508;4.288;2023-05-17T17:20:56;10.50;;;2.10;;
47403;SDS011;33157;51.508;4.288;2023-05-17T17:26:03;8.52;;;2.70;;
47403;SDS011;33157;51.508;4.288;2023-05-17T17:31:07;10.35;;;2.33;;
47403;SDS011;33157;51.508;4.288;2023-05-17T17:36:19;10.65;;;2.25;;
47403;SDS011;33157;51.508;4.288;2023-05-17T17:41:23;8.93;;;2.13;;
47403;SDS011;33157;51.508;4.288;2023-05-17T17:46:27;11.77;;;2.55;;
47403;SDS011;33157;51.508;4.288;2023-05-17T17:51:29;12.25;;;2.35;;
47403;SDS011;33157;51.508;4.288;2023-05-17T17:56:32;12.10;;;2.55;;
47403;SDS011;33157;51.508;4.288;2023-05-17T18:01:37;12.07;;;2.58;;
47403;SDS011;33157;51.508;4.288;2023-05-17T18:06:45;10.90;;;2.50;;
47403;SDS011;33157;51.508;4.288;2023-05-17T18:11:50;13.75;;;2.30;;
47403;SDS011;33157;51.508;4.288;2023-05-17T18:16:57;13.95;;;2.92;;
47403;SDS011;33157;51.508;4.288;2023-05-17T18:21:59;10.23;;;2.22;;
47403;SDS011;33157;51.508;4.288;2023-05-17T18:27:00;14.73;;;3.35;;
47403;SDS011;33157;51.508;4.288;2023-05-17T18:32:08;14.15;;;2.72;;
47403;SDS011;33157;51.508;4.288;2023-05-17T18:37:19;9.50;;;2.67;;
47403;SDS011;33157;51.508;4.288;2023-05-17T18:42:27;13.25;;;2.75;;
47403;SDS011;33157;51.508;4.288;2023-05-17T18:47:30;11.82;;;2.63;;
47403;SDS011;33157;51.508;4.288;2023-05-17T18:52:35;12.80;;;2.25;;
47403;SDS011;33157;51.508;4.288;2023-05-17T18:57:47;9.60;;;2.10;;
47403;SDS011;33157;51.508;4.288;2023-05-17T19:02:52;9.27;;;2.25;;
47403;SDS011;33157;51.508;4.288;2023-05-17T19:07:54;11.35;;;2.42;;
47403;SDS011;33157;51.508;4.288;2023-05-17T19:13:02;12.70;;;2.63;;
47403;SDS011;33157;51.508;4.288;2023-05-17T19:18:10;14.80;;;2.40;;
47403;SDS011;33157;51.508;4.288;2023-05-17T19:23:13;10.90;;;2.72;;
47403;SDS011;33157;51.508;4.288;2023-05-17T19:28:23;16.13;;;2.83;;
47403;SDS011;33157;51.508;4.288;2023-05-17T19:33:29;12.27;;;2.58;;
47403;SDS011;33157;51.508;4.288;2023-05-17T19:38:39;13.48;;;3.20;;
47403;SDS011;33157;51.508;4.288;2023-05-17T19:43:40;17.13;;;3.15;;
47403;SDS011;33157;51.508;4.288;2023-05-17T19:48:46;12.13;;;2.60;;
47403;SDS011;33157;51.508;4.288;2023-05-17T19:53:53;19.65;;;2.97;;
47403;SDS011;33157;51.508;4.288;2023-05-17T19:58:58;13.75;;;3.35;;
47403;SDS011;33157;51.508;4.288;2023-05-17T20:04:04;10.90;;;2.88;;
47403;SDS011;33157;51.508;4.288;2023-05-17T20:09:08;15.35;;;2.80;;
47403;SDS011;33157;51.508;4.288;2023-05-17T20:14:21;14.50;;;2.40;;
47403;SDS011;33157;51.508;4.288;2023-05-17T20:19:23;18.25;;;3.05;;
47403;SDS011;33157;51.508;4.288;2023-05-17T20:24:29;17.23;;;3.97;;
47403;SDS011;33157;51.508;4.288;2023-05-17T20:29:34;16.77;;;3.28;;
47403;SDS011;33157;51.508;4.288;2023-05-17T20:34:48;16.23;;;3.25;;
47403;SDS011;33157;51.508;4.288;2023-05-17T20:39:54;10.00;;;2.50;;
47403;SDS011;33157;51.508;4.288;2023-05-17T20:45:11;11.48;;;2.78;;
47403;SDS011;33157;51.508;4.288;2023-05-17T20:50:12;9.82;;;2.47;;
47403;SDS011;33157;51.508;4.288;2023-05-17T21:00:19;10.63;;;2.83;;
47403;SDS011;33157;51.508;4.288;2023-05-17T21:05:25;17.83;;;3.15;;
47403;SDS011;33157;51.508;4.288;2023-05-17T21:10:35;11.18;;;2.70;;
47403;SDS011;33157;51.508;4.288;2023-05-17T21:15:45;13.10;;;2.72;;
47403;SDS011;33157;51.508;4.288;2023-05-17T21:20:47;12.65;;;2.53;;
47403;SDS011;33157;51.508;4.288;2023-05-17T21:25:51;14.50;;;3.53;;
47403;SDS011;33157;51.508;4.288;2023-05-17T21:30:58;11.13;;;3.10;;
47403;SDS011;33157;51.508;4.288;2023-05-17T21:36:08;11.48;;;2.33;;
47403;SDS011;33157;51.508;4.288;2023-05-17T21:41:13;14.48;;;2.42;;
47403;SDS011;33157;51.508;4.288;2023-05-17T21:46:26;11.02;;;2.33;;
47403;SDS011;33157;51.508;4.288;2023-05-17T21:51:28;12.52;;;2.33;;
47403;SDS011;33157;51.508;4.288;2023-05-17T21:56:36;12.18;;;2.30;;
47403;SDS011;33157;51.508;4.288;2023-05-17T22:01:42;12.82;;;2.58;;
47403;SDS011;33157;51.508;4.288;2023-05-17T22:06:49;18.52;;;3.63;;
47403;SDS011;33157;51.508;4.288;2023-05-17T22:11:55;9.32;;;2.13;;
47403;SDS011;33157;51.508;4.288;2023-05-17T22:17:05;8.45;;;1.90;;
47403;SDS011;33157;51.508;4.288;2023-05-17T22:22:12;9.70;;;2.20;;
47403;SDS011;33157;51.508;4.288;2023-05-17T22:27:12;9.77;;;2.38;;
47403;SDS011;33157;51.508;4.288;2023-05-17T22:32:18;16.65;;;3.92;;
47403;SDS011;33157;51.508;4.288;2023-05-17T22:37:19;15.55;;;3.00;;
47403;SDS011;33157;51.508;4.288;2023-05-17T22:42:22;10.90;;;2.55;;
47403;SDS011;33157;51.508;4.288;2023-05-17T22:47:29;10.68;;;2.38;;
47403;SDS011;33157;51.508;4.288;2023-05-17T22:52:37;12.70;;;2.00;;
47403;SDS011;33157;51.508;4.288;2023-05-17T22:57:44;9.15;;;2.30;;
47403;SDS011;33157;51.508;4.288;2023-05-17T23:02:51;15.38;;;2.47;;
47403;SDS011;33157;51.508;4.288;2023-05-17T23:07:51;13.52;;;2.70;;
47403;SDS011;33157;51.508;4.288;2023-05-17T23:12:59;13.77;;;2.10;;
47403;SDS011;33157;51.508;4.288;2023-05-17T23:18:02;9.35;;;2.28;;
47403;SDS011;33157;51.508;4.288;2023-05-17T23:23:03;7.90;;;1.85;;
47403;SDS011;33157;51.508;4.288;2023-05-17T23:28:08;9.43;;;2.70;;
47403;SDS011;33157;51.508;4.288;2023-05-17T23:33:15;6.35;;;2.20;;
47403;SDS011;33157;51.508;4.288;2023-05-17T23:38:21;13.57;;;2.50;;
47403;SDS011;33157;51.508;4.288;2023-05-17T23:43:26;12.52;;;3.17;;
47403;SDS011;33157;51.508;4.288;2023-05-17T23:48:27;11.15;;;2.47;;
47403;SDS011;33157;51.508;4.288;2023-05-17T23:53:28;10.60;;;2.08;;
47403;SDS011;33157;51.508;4.288;2023-05-17T23:58:29;11.23;;;2.40;;
